Time;durP1;ratioP1;P1;durP2;ratioP2;P2;SDS_P1;SDS_P2;PMS_P1;PMS_P2;Temp;Humidity;BMP_temperature;BMP_pressure;BME280_temperature;BME280_humidity;BME280_pressure;Samples;Min_cycle;Max_cycle;Signal;HPM_P1;HPM_P2
2022/09/15 00:01:19;;;;;;;3.93;1.40;;;15.20;99.90;;;;;;5087865;28;20484;-64
2022/09/15 00:03:45;;;;;;;4.37;1.43;;;15.30;99.90;;;;;;5086413;28;20386;-64
2022/09/15 00:06:11;;;;;;;6.33;1.60;;;15.20;99.90;;;;;;5085743;28;20504;-64
2022/09/15 00:08:37;;;;;;;3.63;1.53;;;15.20;99.90;;;;;;5090876;28;20396;-64
2022/09/15 00:11:04;;;;;;;5.32;1.58;;;15.20;99.90;;;;;;5090318;28;20378;-64
2022/09/15 00:13:30;;;;;;;3.95;1.58;;;15.10;99.90;;;;;;5089379;28;20466;-64
2022/09/15 00:15:56;;;;;;;2.33;1.30;;;15.10;99.90;;;;;;5088901;28;20716;-64
2022/09/15 00:18:21;;;;;;;3.40;1.40;;;15.10;99.90;;;;;;5088904;28;20410;-64
2022/09/15 00:20:47;;;;;;;4.80;1.50;;;15.10;99.90;;;;;;5094400;28;20424;-64
2022/09/15 00:23:14;;;;;;;4.17;1.40;;;15.10;99.90;;;;;;5094977;28;20417;-64
2022/09/15 00:25:43;;;;;;;4.00;1.40;;;15.20;99.90;;;;;;5092603;28;20697;-63
2022/09/15 00:28:08;;;;;;;6.88;1.50;;;15.10;99.90;;;;;;5095456;28;20421;-64
2022/09/15 00:30:38;;;;;;;4.57;1.30;;;15.10;99.90;;;;;;5096053;28;20781;-63
2022/09/15 00:33:03;;;;;;;5.00;1.60;;;15.10;99.90;;;;;;5095415;28;20468;-64
2022/09/15 00:35:29;;;;;;;5.00;1.50;;;15.00;99.90;;;;;;5096273;28;20765;-64
2022/09/15 00:37:54;;;;;;;4.82;1.63;;;15.00;99.90;;;;;;5095435;28;20396;-64
2022/09/15 00:40:20;;;;;;;4.40;1.47;;;14.90;99.90;;;;;;5096416;28;20447;-64
2022/09/15 00:42:45;;;;;;;6.95;1.67;;;14.90;99.90;;;;;;5097614;28;20385;-64
2022/09/15 00:45:15;;;;;;;3.10;1.30;;;14.80;99.90;;;;;;5096777;28;20602;-64
2022/09/15 00:47:42;;;;;;;4.60;1.60;;;14.80;99.90;;;;;;5096644;28;20438;-64
2022/09/15 00:50:12;;;;;;;2.67;1.45;;;14.70;99.90;;;;;;5097367;28;20378;-63
2022/09/15 00:52:47;;;;;;;5.90;1.52;;;14.70;99.90;;;;;;5095349;28;20766;-64
2022/09/15 00:55:28;;;;;;;5.30;1.58;;;14.70;99.90;;;;;;5094311;28;20848;-64
2022/09/15 00:58:00;;;;;;;5.00;1.60;;;14.70;99.90;;;;;;5095891;28;20385;-64
2022/09/15 01:00:27;;;;;;;3.60;1.52;;;14.70;99.90;;;;;;5094729;28;20454;-64
2022/09/15 01:02:54;;;;;;;2.88;1.20;;;14.70;99.90;;;;;;5094568;28;20394;-64
2022/09/15 01:05:24;;;;;;;3.00;1.20;;;14.70;99.90;;;;;;5095328;28;20459;-64
2022/09/15 01:07:57;;;;;;;2.80;1.30;;;14.80;99.90;;;;;;5094601;28;20774;-64
2022/09/15 01:10:29;;;;;;;4.85;1.50;;;14.80;99.90;;;;;;5095363;28;20389;-64
2022/09/15 01:12:58;;;;;;;4.00;1.50;;;14.70;99.90;;;;;;5094904;28;20443;-65
2022/09/15 01:15:31;;;;;;;3.58;1.70;;;14.70;99.90;;;;;;5093754;28;20798;-63
2022/09/15 01:18:19;;;;;;;3.45;1.30;;;14.80;99.90;;;;;;5093007;28;20381;-65
2022/09/15 01:21:07;;;;;;;4.15;1.42;;;14.70;99.90;;;;;;5092841;28;20686;-64
2022/09/15 01:23:59;;;;;;;2.50;1.30;;;14.80;99.90;;;;;;5093942;28;20408;-64
2022/09/15 01:27:05;;;;;;;3.20;1.30;;;14.80;99.90;;;;;;5080647;28;20781;-64
2022/09/15 01:29:49;;;;;;;4.00;1.67;;;14.90;99.90;;;;;;5095207;28;20578;-64
2022/09/15 01:33:05;;;;;;;2.60;1.23;;;14.90;99.90;;;;;;5093865;28;20459;-64
2022/09/15 01:35:53;;;;;;;5.20;1.93;;;14.90;99.90;;;;;;5077159;28;20916;-64
2022/09/15 01:38:31;;;;;;;5.00;1.40;;;14.90;99.90;;;;;;5094366;28;20519;-64
2022/09/15 01:41:13;;;;;;;4.10;1.38;;;14.90;99.90;;;;;;5093845;28;20378;-64
2022/09/15 01:43:46;;;;;;;5.18;1.80;;;14.90;99.90;;;;;;5093448;28;20412;-64
2022/09/15 01:46:14;;;;;;;5.15;1.70;;;14.90;99.90;;;;;;5094302;28;20398;-64
2022/09/15 01:48:41;;;;;;;6.38;1.77;;;14.80;99.90;;;;;;5093992;28;20374;-64
2022/09/15 01:51:07;;;;;;;3.92;1.55;;;14.80;99.90;;;;;;5091095;28;20385;-64
2022/09/15 01:53:33;;;;;;;5.13;1.60;;;14.80;99.90;;;;;;5091927;28;20384;-64
2022/09/15 01:56:06;;;;;;;4.70;1.92;;;14.70;99.90;;;;;;5092537;28;20601;-63
2022/09/15 01:58:33;;;;;;;4.90;1.50;;;14.70;99.90;;;;;;5093578;28;20717;-63
2022/09/15 02:01:07;;;;;;;4.72;1.70;;;14.70;99.90;;;;;;5092209;28;20402;-64
2022/09/15 02:03:48;;;;;;;4.88;1.73;;;14.70;99.90;;;;;;5090974;28;20828;-64
2022/09/15 02:06:23;;;;;;;4.65;1.80;;;14.70;99.90;;;;;;5091940;28;20444;-64
2022/09/15 02:08:55;;;;;;;4.32;1.70;;;14.70;99.90;;;;;;5093998;28;20382;-64
2022/09/15 02:11:25;;;;;;;4.47;1.73;;;14.70;99.90;;;;;;5093507;28;20374;-64
2022/09/15 02:14:17;;;;;;;7.20;1.88;;;14.70;99.90;;;;;;5094023;28;20393;-64
2022/09/15 02:16:47;;;;;;;5.28;1.90;;;14.70;99.90;;;;;;5093516;28;20838;-64
2022/09/15 02:19:13;;;;;;;4.43;1.80;;;14.70;99.90;;;;;;5093167;28;20374;-64
2022/09/15 02:22:05;;;;;;;3.60;1.50;;;14.60;99.90;;;;;;5091527;28;20401;-64
2022/09/15 02:24:40;;;;;;;8.27;1.88;;;14.70;99.90;;;;;;5091826;28;20448;-63
2022/09/15 02:27:21;;;;;;;7.70;2.20;;;14.70;99.90;;;;;;5091860;28;20461;-64
2022/09/15 02:29:48;;;;;;;3.97;1.73;;;14.60;99.90;;;;;;5089955;28;20398;-64
2022/09/15 02:32:17;;;;;;;5.18;1.90;;;14.60;99.90;;;;;;5092381;28;20911;-64
2022/09/15 02:34:47;;;;;;;3.78;1.88;;;14.60;99.90;;;;;;5091010;28;20911;-64
2022/09/15 02:37:14;;;;;;;4.65;1.90;;;14.60;99.90;;;;;;5091928;28;20378;-64
2022/09/15 02:39:45;;;;;;;7.65;1.67;;;14.60;99.90;;;;;;5090906;28;20385;-64
2022/09/15 02:42:11;;;;;;;6.20;1.90;;;14.60;99.90;;;;;;5089815;28;20375;-64
2022/09/15 02:44:37;;;;;;;6.40;2.10;;;14.60;99.90;;;;;;5093189;28;20562;-64
2022/09/15 02:47:03;;;;;;;5.30;1.40;;;14.60;99.90;;;;;;5093708;28;20405;-64
2022/09/15 02:49:29;;;;;;;3.65;1.75;;;14.60;99.90;;;;;;5091690;28;20386;-64
2022/09/15 02:51:55;;;;;;;3.03;1.50;;;14.60;99.90;;;;;;5093176;28;20386;-64
2022/09/15 02:54:20;;;;;;;4.22;1.60;;;14.60;99.90;;;;;;5091775;28;20378;-64
2022/09/15 02:56:46;;;;;;;4.38;1.52;;;14.50;99.90;;;;;;5092547;28;20477;-64
2022/09/15 02:59:12;;;;;;;3.50;1.50;;;14.50;99.90;;;;;;5092834;28;20390;-64
2022/09/15 03:01:39;;;;;;;3.50;1.70;;;14.50;99.90;;;;;;5090449;28;20417;-64
2022/09/15 03:04:05;;;;;;;6.10;1.90;;;14.50;99.90;;;;;;5091549;28;20459;-64
2022/09/15 03:06:33;;;;;;;2.60;1.30;;;14.40;99.90;;;;;;5091339;28;20419;-64
2022/09/15 03:09:02;;;;;;;2.85;1.40;;;14.50;99.90;;;;;;5092229;28;20390;-64
2022/09/15 03:11:28;;;;;;;5.88;1.67;;;14.50;99.90;;;;;;5091649;28;20375;-64
2022/09/15 03:13:57;;;;;;;5.22;1.90;;;14.50;99.90;;;;;;5092611;28;20820;-64
2022/09/15 03:16:23;;;;;;;6.33;1.43;;;14.50;99.90;;;;;;5092758;28;20458;-65
2022/09/15 03:18:49;;;;;;;5.22;1.88;;;14.50;99.90;;;;;;5090684;28;20653;-64
2022/09/15 03:21:17;;;;;;;5.30;1.60;;;14.50;99.90;;;;;;5091129;28;20770;-64
2022/09/15 03:23:43;;;;;;;3.25;1.40;;;14.50;99.90;;;;;;5091248;28;20388;-64
2022/09/15 03:26:10;;;;;;;4.88;1.65;;;14.50;99.90;;;;;;5092728;28;20402;-64
2022/09/15 03:28:37;;;;;;;3.92;1.38;;;14.60;99.90;;;;;;5093584;28;20401;-64
2022/09/15 03:31:04;;;;;;;4.28;1.75;;;14.50;99.90;;;;;;5092120;28;20409;-64
2022/09/15 03:33:29;;;;;;;3.67;1.98;;;14.50;99.90;;;;;;5092547;28;20378;-64
2022/09/15 03:35:55;;;;;;;2.55;1.30;;;14.50;99.90;;;;;;5092872;28;20382;-64
2022/09/15 03:38:22;;;;;;;4.72;1.80;;;14.50;99.90;;;;;;5092590;28;20682;-64
2022/09/15 03:41:09;;;;;;;5.57;1.70;;;14.60;99.90;;;;;;5091779;28;20392;-64
2022/09/15 03:43:36;;;;;;;3.28;1.50;;;14.60;99.90;;;;;;5090730;28;20490;-64
2022/09/15 03:46:04;;;;;;;5.88;1.73;;;14.60;99.90;;;;;;5091307;28;20397;-64
2022/09/15 03:48:31;;;;;;;4.03;1.80;;;14.50;99.90;;;;;;5088851;28;20840;-64
2022/09/15 03:50:57;;;;;;;6.18;1.95;;;14.50;99.90;;;;;;5090292;28;20504;-64
2022/09/15 03:53:23;;;;;;;6.18;1.65;;;14.50;99.90;;;;;;5089850;28;20657;-64
2022/09/15 03:55:49;;;;;;;4.45;1.70;;;14.50;99.90;;;;;;5091595;28;20389;-64
2022/09/15 03:58:16;;;;;;;3.90;1.45;;;14.50;99.90;;;;;;5094387;28;20393;-64
2022/09/15 04:00:42;;;;;;;6.05;1.83;;;14.50;99.90;;;;;;5092127;28;20389;-64
2022/09/15 04:03:08;;;;;;;4.63;2.00;;;14.40;99.90;;;;;;5092842;28;20382;-64
2022/09/15 04:05:35;;;;;;;3.03;1.70;;;14.40;99.90;;;;;;5093001;28;20850;-64
2022/09/15 04:08:00;;;;;;;4.00;1.65;;;14.50;99.90;;;;;;5094232;28;20390;-64
2022/09/15 04:10:27;;;;;;;4.93;1.75;;;14.40;99.90;;;;;;5092936;28;20393;-64
2022/09/15 04:12:52;;;;;;;7.68;1.90;;;14.40;99.90;;;;;;5093223;28;20412;-64
2022/09/15 04:15:19;;;;;;;4.85;1.65;;;14.40;99.90;;;;;;5091841;28;20805;-64
2022/09/15 04:17:46;;;;;;;2.50;1.20;;;14.40;99.90;;;;;;5091381;28;20388;-64
2022/09/15 04:20:12;;;;;;;4.38;1.48;;;14.40;99.90;;;;;;5088708;28;20385;-64
2022/09/15 04:22:38;;;;;;;5.30;1.90;;;14.40;99.90;;;;;;5087408;28;20515;-64
2022/09/15 04:25:04;;;;;;;3.80;1.40;;;14.40;99.90;;;;;;5087916;28;20488;-64
2022/09/15 04:27:33;;;;;;;5.55;1.75;;;14.40;99.90;;;;;;5087911;28;20468;-64
2022/09/15 04:29:59;;;;;;;5.55;1.58;;;14.40;99.90;;;;;;5088307;28;20394;-64
2022/09/15 04:32:24;;;;;;;4.60;1.50;;;14.40;99.90;;;;;;5093669;28;20424;-64
2022/09/15 04:34:50;;;;;;;4.80;1.75;;;14.40;99.90;;;;;;5093701;28;20459;-64
2022/09/15 04:37:16;;;;;;;3.57;1.50;;;14.40;99.90;;;;;;5095925;28;20378;-65
2022/09/15 04:39:41;;;;;;;4.40;2.03;;;14.40;99.90;;;;;;5098081;28;20872;-64
2022/09/15 04:42:07;;;;;;;9.27;2.30;;;14.40;99.90;;;;;;5095622;28;20761;-65
2022/09/15 04:44:32;;;;;;;6.03;1.70;;;14.40;99.90;;;;;;5093875;28;20425;-64
2022/09/15 04:46:58;;;;;;;5.43;1.73;;;14.40;99.90;;;;;;5089335;28;20418;-64
2022/09/15 04:49:24;;;;;;;5.30;1.85;;;14.40;99.90;;;;;;5089298;28;20870;-64
2022/09/15 04:51:53;;;;;;;4.82;1.85;;;14.40;99.90;;;;;;5090453;28;20641;-64
2022/09/15 04:54:19;;;;;;;4.65;1.73;;;14.30;99.90;;;;;;5089089;28;20378;-64
2022/09/15 04:56:44;;;;;;;5.80;2.10;;;14.30;99.90;;;;;;5088348;28;20382;-64
2022/09/15 04:59:15;;;;;;;4.80;1.48;;;14.30;99.90;;;;;;5086185;28;20397;-64
2022/09/15 05:01:41;;;;;;;6.95;1.90;;;14.30;99.90;;;;;;5086948;28;20443;-64
2022/09/15 05:04:07;;;;;;;5.43;1.95;;;14.20;99.90;;;;;;5087365;28;20646;-64
2022/09/15 05:06:34;;;;;;;5.10;1.80;;;14.20;99.90;;;;;;5085256;28;20416;-63
2022/09/15 05:09:00;;;;;;;7.93;1.93;;;14.20;99.90;;;;;;5084528;28;20394;-64
2022/09/15 05:11:27;;;;;;;5.77;1.70;;;14.20;99.90;;;;;;5084355;28;20389;-64
2022/09/15 05:13:53;;;;;;;4.10;1.65;;;14.20;99.90;;;;;;5086108;28;20386;-64
2022/09/15 05:16:24;;;;;;;5.78;1.80;;;14.30;99.90;;;;;;5086640;28;20734;-64
2022/09/15 05:18:51;;;;;;;5.55;1.92;;;14.30;99.90;;;;;;5085494;28;20394;-64
2022/09/15 05:21:19;;;;;;;6.78;1.85;;;14.30;99.90;;;;;;5088312;28;20666;-64
2022/09/15 05:23:45;;;;;;;5.53;1.80;;;14.30;99.90;;;;;;5088519;28;20413;-64
2022/09/15 05:26:16;;;;;;;7.65;1.92;;;14.30;99.90;;;;;;5088798;28;20402;-64
2022/09/15 05:28:42;;;;;;;7.53;2.17;;;14.20;99.90;;;;;;5091418;28;20451;-64
2022/09/15 05:31:29;;;;;;;5.23;1.80;;;14.20;99.90;;;;;;5088414;28;20587;-64
2022/09/15 05:33:55;;;;;;;5.85;1.90;;;14.30;99.90;;;;;;5084475;28;20374;-64
2022/09/15 05:36:24;;;;;;;7.10;1.85;;;14.30;99.90;;;;;;5082172;28;20382;-64
2022/09/15 05:38:51;;;;;;;8.05;1.98;;;14.40;99.90;;;;;;5082920;28;20898;-64
2022/09/15 05:41:17;;;;;;;6.95;2.08;;;14.30;99.90;;;;;;5082470;28;20477;-64
2022/09/15 05:43:45;;;;;;;7.00;1.92;;;14.20;99.90;;;;;;5080269;28;20777;-64
2022/09/15 05:46:10;;;;;;;6.22;1.90;;;14.20;99.90;;;;;;5078993;28;20410;-64
2022/09/15 05:48:36;;;;;;;5.87;2.00;;;14.20;99.90;;;;;;5078708;28;20706;-64
2022/09/15 05:51:03;;;;;;;6.10;1.88;;;14.20;99.90;;;;;;5080101;28;20812;-64
2022/09/15 05:53:29;;;;;;;6.50;1.90;;;14.20;99.90;;;;;;5078862;28;20370;-64
2022/09/15 05:56:01;;;;;;;7.55;1.90;;;14.20;99.90;;;;;;5077333;28;20617;-64
2022/09/15 05:58:27;;;;;;;9.95;1.92;;;14.20;99.90;;;;;;5076187;28;20828;-64
2022/09/15 06:00:53;;;;;;;9.40;1.88;;;14.30;99.90;;;;;;5077392;28;20687;-64
2022/09/15 06:03:20;;;;;;;6.65;2.28;;;14.30;99.90;;;;;;5079772;28;20378;-64
2022/09/15 06:05:46;;;;;;;5.93;1.77;;;14.30;99.90;;;;;;5078536;28;20477;-64
2022/09/15 06:08:12;;;;;;;3.97;1.40;;;14.30;99.90;;;;;;5079795;28;20382;-64
2022/09/15 06:10:38;;;;;;;6.47;1.73;;;14.40;99.90;;;;;;5081091;28;20379;-64
2022/09/15 06:13:04;;;;;;;8.32;1.60;;;14.40;99.90;;;;;;5080029;28;20625;-64
2022/09/15 06:15:30;;;;;;;7.45;1.67;;;14.40;99.90;;;;;;5078142;28;20390;-64
2022/09/15 06:17:55;;;;;;;4.57;1.60;;;14.40;99.90;;;;;;5077749;28;20421;-64
2022/09/15 06:20:21;;;;;;;7.85;1.70;;;14.40;99.90;;;;;;5079981;28;20819;-64
2022/09/15 06:22:47;;;;;;;5.97;1.80;;;14.40;99.90;;;;;;5079655;28;20385;-64
2022/09/15 06:25:13;;;;;;;6.23;1.77;;;14.40;99.90;;;;;;5079488;28;20535;-64
2022/09/15 06:27:40;;;;;;;7.30;1.85;;;14.40;99.90;;;;;;5079490;28;20386;-64
2022/09/15 06:30:07;;;;;;;6.95;1.70;;;14.40;99.90;;;;;;5082592;28;20389;-63
2022/09/15 06:32:33;;;;;;;6.78;1.80;;;14.40;99.90;;;;;;5081147;28;20381;-64
2022/09/15 06:34:59;;;;;;;6.80;1.65;;;14.50;99.90;;;;;;5081255;28;20382;-64
2022/09/15 06:37:24;;;;;;;9.25;1.70;;;14.50;99.90;;;;;;5080577;28;20429;-64
2022/09/15 06:39:50;;;;;;;6.03;1.77;;;14.50;99.90;;;;;;5081020;28;20405;-63
2022/09/15 06:42:15;;;;;;;5.35;1.77;;;14.50;99.90;;;;;;5078070;28;20473;-64
2022/09/15 06:44:41;;;;;;;6.20;1.83;;;14.50;99.90;;;;;;5076982;28;20424;-63
2022/09/15 06:47:07;;;;;;;7.07;1.90;;;14.60;99.90;;;;;;5076629;28;20398;-63
2022/09/15 06:49:32;;;;;;;5.95;1.70;;;14.60;99.90;;;;;;5074288;28;20615;-64
2022/09/15 06:52:01;;;;;;;5.47;1.50;;;14.50;99.90;;;;;;5074879;28;20501;-64
2022/09/15 06:54:26;;;;;;;6.50;1.80;;;14.30;99.90;;;;;;5073156;28;20584;-63
2022/09/15 06:56:52;;;;;;;5.95;1.60;;;14.30;99.90;;;;;;5072562;28;20706;-63
2022/09/15 06:59:17;;;;;;;6.63;1.63;;;14.20;99.90;;;;;;5074514;28;20401;-68
2022/09/15 07:01:43;;;;;;;5.43;1.60;;;14.20;99.90;;;;;;5076186;28;20695;-63
2022/09/15 07:04:09;;;;;;;6.13;1.77;;;14.20;99.90;;;;;;5075467;28;20859;-64
2022/09/15 07:06:36;;;;;;;6.28;1.40;;;14.20;99.90;;;;;;5075941;28;20409;-64
2022/09/15 07:09:03;;;;;;;7.97;1.83;;;14.20;99.90;;;;;;5077147;28;20379;-63
2022/09/15 07:11:30;;;;;;;4.80;1.65;;;14.20;99.90;;;;;;5083212;28;20414;-64
2022/09/15 07:13:56;;;;;;;5.28;1.52;;;14.30;99.90;;;;;;5084474;28;20393;-63
2022/09/15 07:16:24;;;;;;;6.57;1.83;;;14.20;99.90;;;;;;5083355;28;20400;-64
2022/09/15 07:18:50;;;;;;;4.60;1.40;;;14.30;99.90;;;;;;5082756;28;21095;-64
2022/09/15 07:21:20;;;;;;;2.83;1.27;;;14.40;99.90;;;;;;5070906;28;20550;-63
2022/09/15 07:23:46;;;;;;;5.63;1.70;;;14.50;99.90;;;;;;5067499;28;20374;-63
2022/09/15 07:26:14;;;;;;;5.83;1.50;;;14.60;99.90;;;;;;5065972;28;20405;-63
2022/09/15 07:28:41;;;;;;;6.45;1.98;;;14.60;99.90;;;;;;5069444;28;20419;-64
2022/09/15 07:31:08;;;;;;;5.07;1.40;;;14.60;99.90;;;;;;5072159;28;20839;-63
2022/09/15 07:33:34;;;;;;;8.30;1.92;;;14.60;99.90;;;;;;5074887;28;20766;-64
2022/09/15 07:36:01;;;;;;;7.15;2.15;;;14.60;99.90;;;;;;5078055;28;20378;-64
2022/09/15 07:38:27;;;;;;;9.07;1.63;;;14.60;99.90;;;;;;5075993;28;20655;-64
2022/09/15 07:40:53;;;;;;;7.50;1.88;;;14.70;99.90;;;;;;5077613;28;20385;-64
2022/09/15 07:43:18;;;;;;;6.03;1.90;;;14.70;99.90;;;;;;5075546;28;20401;-64
2022/09/15 07:45:45;;;;;;;8.07;1.97;;;14.70;99.90;;;;;;5071903;28;20475;-64
2022/09/15 07:48:11;;;;;;;9.38;1.83;;;14.70;99.90;;;;;;5070052;28;20761;-64
2022/09/15 07:50:37;;;;;;;7.80;1.90;;;14.70;99.90;;;;;;5066773;28;20438;-64
2022/09/15 07:53:03;;;;;;;7.75;1.98;;;14.70;99.90;;;;;;5067072;28;20390;-64
2022/09/15 07:55:29;;;;;;;6.78;1.90;;;14.80;99.90;;;;;;5067580;28;20430;-64
2022/09/15 07:58:02;;;;;;;8.43;1.77;;;14.80;99.90;;;;;;5066508;28;20578;-63
2022/09/15 08:00:29;;;;;;;5.03;1.85;;;14.80;99.90;;;;;;5068233;28;20394;-64
2022/09/15 08:02:55;;;;;;;7.03;2.05;;;14.80;99.90;;;;;;5073880;28;20386;-63
2022/09/15 08:05:25;;;;;;;6.95;1.80;;;14.80;99.90;;;;;;5072207;28;20406;-64
2022/09/15 08:07:51;;;;;;;7.80;2.07;;;14.90;99.90;;;;;;5074785;28;20604;-64
2022/09/15 08:10:16;;;;;;;7.10;2.07;;;15.00;99.90;;;;;;5073402;28;20761;-63
2022/09/15 08:12:42;;;;;;;6.60;1.50;;;15.00;99.90;;;;;;5075643;28;20405;-63
2022/09/15 08:15:08;;;;;;;8.10;2.40;;;15.10;99.90;;;;;;5076365;28;20548;-63
2022/09/15 08:17:34;;;;;;;5.43;1.90;;;15.10;99.90;;;;;;5078079;28;20389;-64
2022/09/15 08:20:00;;;;;;;8.43;2.28;;;15.10;99.90;;;;;;5075780;28;20481;-64
2022/09/15 08:22:25;;;;;;;6.00;1.63;;;15.10;99.90;;;;;;5074691;28;20378;-63
2022/09/15 08:24:50;;;;;;;13.17;2.73;;;15.10;99.90;;;;;;5070899;28;20685;-63
2022/09/15 08:27:16;;;;;;;11.73;2.30;;;15.10;99.90;;;;;;5070323;28;20777;-63
2022/09/15 08:29:42;;;;;;;8.70;2.20;;;15.20;99.90;;;;;;5072400;28;20723;-63
2022/09/15 08:32:07;;;;;;;7.50;2.07;;;15.20;99.90;;;;;;5071565;28;20382;-63
2022/09/15 08:34:33;;;;;;;7.78;2.05;;;15.30;99.90;;;;;;5068434;28;20662;-63
2022/09/15 08:36:59;;;;;;;6.90;1.60;;;15.30;99.90;;;;;;5071309;28;20386;-63
2022/09/15 08:39:24;;;;;;;8.17;1.83;;;15.30;99.90;;;;;;5076247;28;20429;-63
2022/09/15 08:41:52;;;;;;;6.38;1.45;;;15.40;99.90;;;;;;5081133;28;20423;-63
2022/09/15 08:44:23;;;;;;;7.85;1.70;;;15.50;99.90;;;;;;5079724;28;21096;-63
2022/09/15 08:47:25;;;;;;;5.23;1.33;;;15.50;99.90;;;;;;5077830;28;20672;-63
2022/09/15 08:50:29;;;;;;;5.60;1.55;;;15.70;99.90;;;;;;5072430;28;20697;-63
2022/09/15 08:53:05;;;;;;;9.38;1.52;;;15.70;99.90;;;;;;5082686;28;20382;-64
2022/09/15 08:55:52;;;;;;;5.45;1.35;;;15.80;99.90;;;;;;5082930;28;20478;-63
2022/09/15 08:58:28;;;;;;;7.25;1.60;;;15.80;99.90;;;;;;5080524;28;20397;-64
2022/09/15 09:01:09;;;;;;;6.82;1.40;;;15.90;99.90;;;;;;5082013;28;20680;-64
2022/09/15 09:03:52;;;;;;;5.28;1.40;;;15.80;99.90;;;;;;5082318;28;20793;-63
2022/09/15 09:06:36;;;;;;;5.82;1.60;;;15.90;99.90;;;;;;5079950;28;20417;-63
2022/09/15 09:09:21;;;;;;;5.10;1.55;;;16.00;99.90;;;;;;5078071;28;20473;-63
2022/09/15 09:12:25;;;;;;;4.38;1.30;;;16.00;99.90;;;;;;5079120;28;20390;-63
2022/09/15 09:15:12;;;;;;;5.25;1.80;;;16.00;99.90;;;;;;5081735;28;20633;-63
2022/09/15 09:18:06;;;;;;;7.15;1.73;;;15.90;99.90;;;;;;5081585;28;20609;-64
2022/09/15 09:20:52;;;;;;;8.25;1.65;;;15.90;99.90;;;;;;5083613;28;20801;-64
2022/09/15 09:23:22;;;;;;;6.80;1.42;;;16.00;99.90;;;;;;5068279;28;20384;-64
2022/09/15 09:25:48;;;;;;;6.43;1.70;;;16.10;99.90;;;;;;5081843;28;20657;-64
2022/09/15 09:28:39;;;;;;;8.02;1.75;;;16.10;99.90;;;;;;5079480;28;20692;-63
2022/09/15 09:31:06;;;;;;;5.35;1.58;;;16.20;99.90;;;;;;5077200;28;20386;-64
2022/09/15 09:33:40;;;;;;;6.10;1.60;;;16.20;99.90;;;;;;5075806;28;20413;-64
2022/09/15 09:36:08;;;;;;;4.22;1.27;;;16.20;99.90;;;;;;5078113;28;20391;-64
2022/09/15 09:38:39;;;;;;;5.90;1.38;;;16.20;99.90;;;;;;5079605;28;21063;-63
2022/09/15 09:41:34;;;;;;;7.10;1.52;;;16.10;99.90;;;;;;5077870;28;20374;-63
2022/09/15 09:44:01;;;;;;;5.30;1.63;;;16.00;99.90;;;;;;5076567;28;20402;-63
2022/09/15 09:46:27;;;;;;;6.28;1.55;;;16.00;99.90;;;;;;5076741;28;20475;-63
2022/09/15 09:48:59;;;;;;;5.95;1.52;;;15.90;99.90;;;;;;5074332;28;20507;-63
2022/09/15 09:51:28;;;;;;;5.03;1.38;;;15.50;99.90;;;;;;5075028;28;20400;-64
2022/09/15 09:53:53;;;;;;;5.63;1.45;;;15.20;99.90;;;;;;5079289;28;20431;-56
2022/09/15 09:56:26;;;;;;;5.90;1.40;;;15.00;99.90;;;;;;5086041;28;20639;-56
2022/09/15 09:58:53;;;;;;;6.38;1.50;;;15.00;99.90;;;;;;5082079;28;20672;-54
2022/09/15 10:01:22;;;;;;;4.22;1.30;;;15.00;99.90;;;;;;5081770;28;20426;-57
2022/09/15 10:03:48;;;;;;;9.55;1.48;;;15.00;99.90;;;;;;5085518;28;20386;-57
2022/09/15 10:06:21;;;;;;;7.30;2.00;;;15.00;99.90;;;;;;5084849;28;20413;-54
2022/09/15 10:09:04;;;;;;;6.28;1.92;;;15.00;99.90;;;;;;5084962;28;20429;-57
2022/09/15 10:11:50;;;;;;;5.75;1.88;;;15.10;99.90;;;;;;5085118;28;20386;-56
2022/09/15 10:14:30;;;;;;;6.43;1.73;;;15.20;99.90;;;;;;5078562;28;20907;-64
2022/09/15 10:17:09;;;;;;;5.60;1.60;;;15.30;99.90;;;;;;5079076;28;20885;-64
2022/09/15 10:19:53;;;;;;;6.35;2.03;;;15.40;99.90;;;;;;5078808;28;20750;-64
2022/09/15 10:22:30;;;;;;;5.43;1.40;;;15.50;99.90;;;;;;5077060;28;20402;-64
2022/09/15 10:24:56;;;;;;;8.93;1.95;;;15.70;99.90;;;;;;5075877;28;20624;-64
2022/09/15 10:27:35;;;;;;;4.88;1.77;;;15.90;99.90;;;;;;5078612;28;20678;-64
2022/09/15 10:30:13;;;;;;;6.03;1.53;;;16.10;99.90;;;;;;5081744;28;20673;-64
2022/09/15 10:32:40;;;;;;;7.13;1.60;;;16.20;99.90;;;;;;5082818;28;20483;-64
2022/09/15 10:35:13;;;;;;;3.40;1.38;;;16.30;99.90;;;;;;5080192;28;20781;-64
2022/09/15 10:38:03;;;;;;;5.70;1.60;;;16.30;99.90;;;;;;5079576;28;20385;-64
2022/09/15 10:40:46;;;;;;;5.57;1.25;;;16.30;99.90;;;;;;5080103;28;21052;-64
2022/09/15 10:43:33;;;;;;;4.38;1.45;;;16.20;99.90;;;;;;5076737;28;20417;-63
2022/09/15 10:46:02;;;;;;;6.80;1.38;;;16.30;99.90;;;;;;5074385;28;20471;-64
2022/09/15 10:48:45;;;;;;;6.28;1.60;;;16.60;99.90;;;;;;5075115;28;20671;-64
2022/09/15 10:51:22;;;;;;;5.38;1.63;;;16.90;99.90;;;;;;5075371;28;20769;-64
2022/09/15 10:54:07;;;;;;;3.08;1.20;;;17.20;99.90;;;;;;5073486;28;20473;-64
2022/09/15 10:56:50;;;;;;;4.83;1.20;;;17.50;99.90;;;;;;5072207;28;20560;-64
2022/09/15 10:59:19;;;;;;;3.03;0.90;;;17.60;99.90;;;;;;5078511;28;20394;-64
2022/09/15 11:02:24;;;;;;;3.33;1.05;;;17.70;99.90;;;;;;5078554;27;20669;-64
2022/09/15 11:05:15;;;;;;;3.30;1.13;;;17.70;99.90;;;;;;5078673;28;20825;-64
2022/09/15 11:07:58;;;;;;;3.55;1.10;;;17.90;99.90;;;;;;5075192;28;20402;-64
2022/09/15 11:10:42;;;;;;;2.92;1.10;;;18.10;99.90;;;;;;5071558;28;20389;-64
2022/09/15 11:13:28;;;;;;;4.93;1.20;;;18.30;99.90;;;;;;5069474;28;20505;-64
2022/09/15 11:15:56;;;;;;;5.15;1.27;;;18.70;99.90;;;;;;5070577;28;20442;-64
2022/09/15 11:18:34;;;;;;;4.00;1.08;;;18.90;99.90;;;;;;5080496;28;20430;-64
2022/09/15 11:21:10;;;;;;;5.32;1.23;;;18.70;99.90;;;;;;5081029;28;20406;-64
2022/09/15 11:24:06;;;;;;;3.80;1.30;;;18.60;99.90;;;;;;5082045;28;20670;-64
2022/09/15 11:26:41;;;;;;;2.58;1.10;;;18.70;99.90;;;;;;5082084;28;20393;-63
2022/09/15 11:29:18;;;;;;;3.60;1.15;;;18.60;99.90;;;;;;5081342;28;20418;-63
2022/09/15 11:31:50;;;;;;;4.35;1.00;;;18.20;99.90;;;;;;5082268;28;20497;-63
2022/09/15 11:34:23;;;;;;;3.73;0.70;;;17.80;99.90;;;;;;5082397;28;20382;-63
2022/09/15 11:37:08;;;;;;;4.05;1.05;;;17.40;99.90;;;;;;5081556;28;20693;-63
2022/09/15 11:39:40;;;;;;;1.98;0.80;;;17.30;99.90;;;;;;5083218;28;20392;-63
2022/09/15 11:42:19;;;;;;;1.80;0.68;;;16.90;99.90;;;;;;5080757;28;20386;-64
2022/09/15 11:44:46;;;;;;;3.50;0.90;;;16.80;99.90;;;;;;5081929;28;20417;-63
2022/09/15 11:47:40;;;;;;;3.75;1.13;;;16.60;99.90;;;;;;5082366;28;20408;-63
2022/09/15 11:50:17;;;;;;;3.00;0.90;;;16.40;99.90;;;;;;5082913;28;20718;-63
2022/09/15 11:53:10;;;;;;;3.35;0.88;;;16.50;99.90;;;;;;5082882;28;20389;-63
2022/09/15 11:55:41;;;;;;;2.53;0.90;;;16.50;99.90;;;;;;5080732;28;20377;-63
2022/09/15 11:58:34;;;;;;;2.95;1.10;;;16.90;99.90;;;;;;5081859;28;20385;-63
2022/09/15 12:01:07;;;;;;;2.55;0.90;;;17.40;99.90;;;;;;5082826;28;20381;-63
2022/09/15 12:03:54;;;;;;;3.50;1.20;;;17.90;99.90;;;;;;5082628;28;20401;-63
2022/09/15 12:06:42;;;;;;;5.18;1.45;;;18.50;99.90;;;;;;5082362;28;20409;-64
2022/09/15 12:09:14;;;;;;;4.05;1.20;;;18.70;99.90;;;;;;5080986;28;20393;-63
2022/09/15 12:11:50;;;;;;;4.27;1.30;;;19.10;99.90;;;;;;5081651;28;20436;-63
2022/09/15 12:14:26;;;;;;;4.15;1.30;;;19.10;99.90;;;;;;5081403;28;20463;-63
2022/09/15 12:16:52;;;;;;;4.35;1.38;;;19.00;99.90;;;;;;5086436;28;20413;-64
2022/09/15 12:19:56;;;;;;;5.60;1.17;;;19.10;99.90;;;;;;5087126;28;20424;-63
2022/09/15 12:22:48;;;;;;;7.43;1.83;;;18.80;99.90;;;;;;5083967;28;20393;-63
2022/09/15 12:25:20;;;;;;;4.25;1.25;;;18.60;99.90;;;;;;5086651;28;20468;-63
2022/09/15 12:28:22;;;;;;;7.47;1.40;;;18.40;99.90;;;;;;5084695;28;20756;-62
2022/09/15 12:31:25;;;;;;;5.93;1.52;;;17.90;99.90;;;;;;5085291;28;20459;-62
2022/09/15 12:34:04;;;;;;;5.43;1.50;;;17.70;99.90;;;;;;5021026;28;20829;-62
2022/09/15 12:36:44;;;;;;;4.85;1.38;;;17.80;99.90;;;;;;5075867;28;20462;-62
2022/09/15 12:39:29;;;;;;;6.28;1.40;;;17.90;99.90;;;;;;5085722;28;20481;-63
2022/09/15 12:42:13;;;;;;;4.13;1.35;;;18.30;99.90;;;;;;5086977;28;20465;-63
2022/09/15 12:44:56;;;;;;;4.80;1.40;;;18.40;99.90;;;;;;5075957;27;20401;-63
2022/09/15 12:47:47;;;;;;;5.70;1.40;;;18.70;99.90;;;;;;5077762;28;20408;-63
2022/09/15 12:50:13;;;;;;;4.03;1.08;;;18.90;99.90;;;;;;5077774;28;20785;-63
2022/09/15 12:52:50;;;;;;;4.33;1.33;;;18.80;99.90;;;;;;5077354;28;20390;-63
2022/09/15 12:55:23;;;;;;;3.13;1.07;;;18.80;99.90;;;;;;5078823;28;20766;-64
2022/09/15 12:57:52;;;;;;;3.90;1.40;;;19.30;99.90;;;;;;5083257;28;20840;-64
2022/09/15 13:00:36;;;;;;;5.10;1.37;;;19.60;99.90;;;;;;5083503;28;20382;-64
2022/09/15 13:03:04;;;;;;;4.20;1.13;;;19.90;99.90;;;;;;5085518;28;20442;-64
2022/09/15 13:06:17;;;;;;;4.53;1.15;;;19.80;99.90;;;;;;5082615;28;20390;-64
2022/09/15 13:09:01;;;;;;;3.55;1.10;;;20.00;99.90;;;;;;5076582;28;20486;-64
2022/09/15 13:11:33;;;;;;;4.57;1.30;;;19.90;99.90;;;;;;5083812;28;20473;-64
2022/09/15 13:14:07;;;;;;;3.25;1.10;;;19.90;99.90;;;;;;5085980;28;20378;-64